createdAt,value
2022-11-24T00:02:17.810Z,2.08
2022-11-24T00:04:44.391Z,2.35
2022-11-24T00:07:10.911Z,2.08
2022-11-24T00:09:37.454Z,2.08
2022-11-24T00:12:04.340Z,2.00
2022-11-24T00:14:31.052Z,2.13
2022-11-24T00:16:57.739Z,2.70
2022-11-24T00:19:24.310Z,3.60
2022-11-24T00:21:50.803Z,4.20
2022-11-24T00:24:17.315Z,4.15
2022-11-24T00:26:43.793Z,4.38
2022-11-24T00:29:11.365Z,3.75
2022-11-24T00:31:41.255Z,4.20
2022-11-24T00:34:11.280Z,3.55
2022-11-24T00:36:38.366Z,4.03
2022-11-24T00:39:15.823Z,4.60
2022-11-24T00:41:42.863Z,4.90
2022-11-24T00:44:09.418Z,3.72
2022-11-24T00:46:36.006Z,4.68
2022-11-24T00:49:03.047Z,4.45
2022-11-24T00:51:30.108Z,3.85
2022-11-24T00:53:57.573Z,3.65
2022-11-24T00:56:25.064Z,3.78
2022-11-24T00:58:51.950Z,3.70
2022-11-24T01:01:23.800Z,2.60
2022-11-24T01:03:50.890Z,3.15
2022-11-24T01:06:22.943Z,3.13
2022-11-24T01:08:49.502Z,2.95
2022-11-24T01:11:30.286Z,2.60
2022-11-24T01:13:58.931Z,3.53
2022-11-24T01:16:30.395Z,3.25
2022-11-24T01:18:57.022Z,3.25
2022-11-24T01:21:23.883Z,2.90
2022-11-24T01:23:50.827Z,3.70
2022-11-24T01:26:20.290Z,3.47
2022-11-24T01:28:47.942Z,3.10
2022-11-24T01:31:15.300Z,3.65
2022-11-24T01:33:41.899Z,3.10
2022-11-24T01:36:08.439Z,3.70
2022-11-24T01:38:35.030Z,3.50
2022-11-24T01:41:03.555Z,2.60
2022-11-24T01:43:30.094Z,3.35
2022-11-24T01:45:57.133Z,3.13
2022-11-24T01:48:28.855Z,3.47
2022-11-24T01:51:10.033Z,3.22
2022-11-24T01:53:37.151Z,3.58
2022-11-24T01:56:04.344Z,3.60
2022-11-24T01:58:32.462Z,3.05
2022-11-24T02:00:59.305Z,3.95
2022-11-24T02:03:30.423Z,3.67
2022-11-24T02:06:02.467Z,4.80
2022-11-24T02:08:42.823Z,4.55
2022-11-24T02:13:37.361Z,3.88
2022-11-24T02:16:06.643Z,4.32
2022-11-24T02:18:33.383Z,4.55
2022-11-24T02:21:01.226Z,3.90
2022-11-24T02:23:35.560Z,4.70
2022-11-24T02:26:26.809Z,4.45
2022-11-24T02:28:53.694Z,4.45
2022-11-24T02:31:20.312Z,4.70
2022-11-24T02:33:48.952Z,4.70
2022-11-24T02:36:15.931Z,4.82
2022-11-24T02:38:42.483Z,4.40
2022-11-24T02:41:18.067Z,4.13
2022-11-24T02:43:55.067Z,5.47
2022-11-24T02:46:22.154Z,4.90
2022-11-24T02:48:48.783Z,4.53
2022-11-24T02:51:15.498Z,4.93
2022-11-24T02:53:41.987Z,5.45
2022-11-24T02:56:08.552Z,4.32
2022-11-24T02:58:35.546Z,5.70
2022-11-24T03:01:02.692Z,4.90
2022-11-24T03:03:29.343Z,5.03
2022-11-24T03:05:55.883Z,5.53
2022-11-24T03:08:22.399Z,4.45
2022-11-24T03:10:48.929Z,4.78
2022-11-24T03:13:15.427Z,4.90
2022-11-24T03:15:42.013Z,4.88
2022-11-24T03:18:08.531Z,4.30
2022-11-24T03:20:35.051Z,4.63
2022-11-24T03:23:01.574Z,4.75
2022-11-24T03:25:28.063Z,4.57
2022-11-24T03:27:56.463Z,3.90
2022-11-24T03:30:22.958Z,3.60
2022-11-24T03:32:51.600Z,3.88
2022-11-24T03:35:18.148Z,3.85
2022-11-24T03:37:44.650Z,4.53
2022-11-24T03:40:11.460Z,3.33
2022-11-24T03:42:37.954Z,3.50
2022-11-24T03:45:29.889Z,3.67
2022-11-24T03:47:51.521Z,3.65
2022-11-24T03:50:18.119Z,3.78
2022-11-24T03:52:44.568Z,3.00
2022-11-24T03:55:11.049Z,3.45
2022-11-24T03:57:37.515Z,3.67
2022-11-24T04:00:04.408Z,4.15
2022-11-24T04:02:30.936Z,3.33
2022-11-24T04:04:57.469Z,3.50
2022-11-24T04:07:24.026Z,3.55
2022-11-24T04:09:50.573Z,4.22
2022-11-24T04:12:17.076Z,2.85
2022-11-24T04:14:51.781Z,3.75
2022-11-24T04:17:18.812Z,4.28
2022-11-24T04:19:45.292Z,3.90
2022-11-24T04:22:11.784Z,3.92
2022-11-24T04:24:38.300Z,3.72
2022-11-24T04:27:04.816Z,4.13
2022-11-24T04:29:31.291Z,3.60
2022-11-24T04:31:57.794Z,4.20
2022-11-24T04:34:24.282Z,3.85
2022-11-24T04:36:50.770Z,3.22
2022-11-24T04:39:25.874Z,4.07
2022-11-24T04:41:53.175Z,3.42
2022-11-24T04:44:19.879Z,3.50
2022-11-24T04:46:46.430Z,3.88
2022-11-24T04:49:12.938Z,3.75
2022-11-24T04:51:39.834Z,3.67
2022-11-24T04:54:13.645Z,3.20
2022-11-24T04:56:41.199Z,3.58
2022-11-24T04:59:08.767Z,3.10
2022-11-24T05:01:35.703Z,3.88
2022-11-24T05:04:02.286Z,2.60
2022-11-24T05:06:28.821Z,3.67
2022-11-24T05:08:55.459Z,3.40
2022-11-24T05:11:22.044Z,2.70
2022-11-24T05:13:48.491Z,3.05
2022-11-24T05:16:15.084Z,3.03
2022-11-24T05:18:41.705Z,3.03
2022-11-24T05:21:08.186Z,2.92
2022-11-24T05:23:34.682Z,2.67
2022-11-24T05:26:01.478Z,2.88
2022-11-24T05:28:28.743Z,2.97
2022-11-24T05:30:58.960Z,2.83
2022-11-24T05:33:25.443Z,3.57
2022-11-24T05:35:53.267Z,4.10
2022-11-24T05:38:19.992Z,3.17
2022-11-24T05:40:46.777Z,3.30
2022-11-24T05:43:15.080Z,3.50
2022-11-24T05:45:41.769Z,3.25
2022-11-24T05:48:10.735Z,2.88
2022-11-24T05:50:37.243Z,2.80
2022-11-24T05:53:12.222Z,2.72
2022-11-24T05:55:40.071Z,2.88
2022-11-24T05:58:08.487Z,2.70
2022-11-24T06:00:35.938Z,2.88
2022-11-24T06:03:02.565Z,4.15
2022-11-24T06:05:29.348Z,3.40
2022-11-24T06:07:56.306Z,3.95
2022-11-24T06:10:23.467Z,4.05
2022-11-24T06:12:50.383Z,3.67
2022-11-24T06:15:16.922Z,3.60
2022-11-24T06:17:43.575Z,3.35
2022-11-24T06:20:10.943Z,3.55
2022-11-24T06:22:37.562Z,3.20
2022-11-24T06:25:04.637Z,3.90
2022-11-24T06:27:31.123Z,3.25
2022-11-24T06:29:57.627Z,3.75
2022-11-24T06:32:24.138Z,6.35
2022-11-24T06:34:50.615Z,3.55
2022-11-24T06:37:17.075Z,2.97
2022-11-24T06:39:43.565Z,2.92
2022-11-24T06:42:10.146Z,3.40
2022-11-24T06:44:36.739Z,3.25
2022-11-24T06:47:03.334Z,3.15
2022-11-24T06:49:29.890Z,2.85
2022-11-24T06:51:56.355Z,3.40
2022-11-24T06:54:22.971Z,3.17
2022-11-24T06:56:49.633Z,3.00
2022-11-24T06:59:18.562Z,2.22
2022-11-24T07:01:45.122Z,2.75
2022-11-24T07:04:11.602Z,2.97
2022-11-24T07:06:38.114Z,2.72
2022-11-24T07:09:04.592Z,2.65
2022-11-24T07:11:31.054Z,2.65
2022-11-24T07:14:00.128Z,2.70
2022-11-24T07:16:27.981Z,2.38
2022-11-24T07:18:55.094Z,2.70
2022-11-24T07:21:22.911Z,3.05
2022-11-24T07:23:50.138Z,3.13
2022-11-24T07:26:17.715Z,2.85
2022-11-24T07:28:44.737Z,2.63
2022-11-24T07:31:13.250Z,2.28
2022-11-24T07:33:40.203Z,2.83
2022-11-24T07:36:07.730Z,2.60
2022-11-24T07:38:34.896Z,2.72
2022-11-24T07:41:01.712Z,2.75
2022-11-24T07:43:30.382Z,2.75
2022-11-24T07:45:56.879Z,2.13
2022-11-24T07:48:23.499Z,2.33
2022-11-24T07:50:55.501Z,2.42
2022-11-24T07:53:22.733Z,2.13
2022-11-24T07:55:56.375Z,2.03
2022-11-24T07:58:23.261Z,2.65
2022-11-24T08:00:49.911Z,2.45
2022-11-24T08:03:16.551Z,3.00
2022-11-24T08:06:07.958Z,2.78
2022-11-24T08:08:31.022Z,3.00
2022-11-24T08:10:57.581Z,2.85
2022-11-24T08:13:24.083Z,2.67
2022-11-24T08:15:50.567Z,3.10
2022-11-24T08:18:17.152Z,2.90
2022-11-24T08:20:45.217Z,2.65
2022-11-24T08:23:14.956Z,2.38
2022-11-24T08:25:41.706Z,2.38
2022-11-24T08:28:08.363Z,2.50
2022-11-24T08:30:34.888Z,2.55
2022-11-24T08:33:01.439Z,2.72
2022-11-24T08:35:28.074Z,2.75
2022-11-24T08:37:54.788Z,2.80
2022-11-24T08:40:23.441Z,2.90
2022-11-24T08:42:49.960Z,2.33
2022-11-24T08:45:20.758Z,2.22
2022-11-24T08:47:52.153Z,2.10
2022-11-24T08:50:18.704Z,2.22
2022-11-24T08:52:45.196Z,2.38
2022-11-24T08:55:11.666Z,2.58
2022-11-24T08:57:38.144Z,2.10
2022-11-24T09:00:05.767Z,2.20
2022-11-24T09:02:32.536Z,2.60
2022-11-24T09:04:58.989Z,4.22
2022-11-24T09:07:25.547Z,2.30
2022-11-24T09:09:52.100Z,2.40
2022-11-24T09:12:18.571Z,2.20
2022-11-24T09:14:45.122Z,2.70
2022-11-24T09:17:11.715Z,2.10
2022-11-24T09:19:42.464Z,1.70
2022-11-24T09:22:09.123Z,2.50
2022-11-24T09:24:35.620Z,2.03
2022-11-24T09:27:03.372Z,1.98
2022-11-24T09:29:29.863Z,1.90
2022-11-24T09:31:57.305Z,2.00
2022-11-24T09:34:26.133Z,1.98
2022-11-24T09:36:53.770Z,1.67
2022-11-24T09:39:20.271Z,2.05
2022-11-24T09:42:06.689Z,1.73
2022-11-24T09:44:52.551Z,2.03
2022-11-24T09:47:33.249Z,1.83
2022-11-24T09:50:04.111Z,1.77
2022-11-24T09:52:40.186Z,2.03
2022-11-24T09:55:42.512Z,1.98
2022-11-24T09:58:27.563Z,2.28
2022-11-24T10:00:55.902Z,2.55
2022-11-24T10:03:46.577Z,2.28
2022-11-24T10:06:39.233Z,1.85
2022-11-24T10:09:17.763Z,2.03
2022-11-24T10:11:51.544Z,2.20
2022-11-24T10:14:21.078Z,2.05
2022-11-24T10:17:07.838Z,2.28
2022-11-24T10:19:48.759Z,1.60
2022-11-24T10:22:28.162Z,1.90
2022-11-24T10:25:00.358Z,1.98
2022-11-24T10:27:33.570Z,2.45
2022-11-24T10:30:00.502Z,2.22
2022-11-24T10:32:32.205Z,1.95
2022-11-24T10:35:00.820Z,1.80
2022-11-24T10:37:37.037Z,1.92
2022-11-24T10:40:48.656Z,2.03
2022-11-24T10:43:11.846Z,2.10
2022-11-24T10:45:39.121Z,2.08
2022-11-24T10:48:10.947Z,2.15
2022-11-24T10:50:41.076Z,2.15
2022-11-24T10:55:54.495Z,1.95
2022-11-24T10:58:37.655Z,1.92
2022-11-24T11:01:13.479Z,2.50
2022-11-24T11:03:51.786Z,2.47
2022-11-24T11:06:26.414Z,2.10
2022-11-24T11:09:08.205Z,2.05
2022-11-24T11:11:38.963Z,2.22
2022-11-24T11:14:06.973Z,2.30
2022-11-24T11:16:40.448Z,2.10
2022-11-24T11:19:50.912Z,1.83
2022-11-24T11:22:29.188Z,2.03
2022-11-24T11:25:10.988Z,1.95
2022-11-24T11:27:39.336Z,2.05
2022-11-24T11:36:10.055Z,2.22
2022-11-24T11:38:38.658Z,2.20
2022-11-24T11:41:05.937Z,2.10
2022-11-24T11:43:35.090Z,2.30
2022-11-24T11:46:15.020Z,2.17
2022-11-24T11:48:44.516Z,2.10
2022-11-24T11:51:33.533Z,2.20
2022-11-24T11:54:23.125Z,1.70
2022-11-24T11:57:11.668Z,1.90
2022-11-24T12:00:18.100Z,2.38
2022-11-24T12:03:08.804Z,2.50
2022-11-24T12:05:47.604Z,2.63
2022-11-24T12:08:56.039Z,2.10
2022-11-24T12:11:51.104Z,2.20
2022-11-24T12:14:39.319Z,2.28
2022-11-24T12:17:29.512Z,1.77
2022-11-24T12:20:17.755Z,2.35
2022-11-24T12:22:52.506Z,1.67
2022-11-24T12:25:39.395Z,2.05
2022-11-24T12:28:32.979Z,1.92
2022-11-24T12:31:30.976Z,1.35
2022-11-24T12:34:01.845Z,1.67
2022-11-24T12:37:06.019Z,1.88
2022-11-24T12:39:40.895Z,2.47
2022-11-24T12:42:30.301Z,2.00
2022-11-24T12:45:04.076Z,1.88
2022-11-24T12:47:49.641Z,2.00
2022-11-24T12:50:19.381Z,2.22
2022-11-24T12:52:58.608Z,1.63
2022-11-24T12:55:27.003Z,2.15
2022-11-24T12:58:10.964Z,2.13
2022-11-24T13:01:15.916Z,2.15
2022-11-24T13:04:05.443Z,2.30
2022-11-24T13:06:47.458Z,2.10
2022-11-24T13:09:15.791Z,2.15
2022-11-24T13:11:45.705Z,1.83
2022-11-24T13:14:15.167Z,2.25
2022-11-24T13:17:21.223Z,2.20
2022-11-24T13:19:38.204Z,2.20
2022-11-24T13:22:07.738Z,1.80
2022-11-24T13:24:36.361Z,2.08
2022-11-24T13:27:15.491Z,2.10
2022-11-24T13:29:46.226Z,1.98
2022-11-24T13:32:12.595Z,2.33
2022-11-24T13:34:39.014Z,1.67
2022-11-24T13:37:35.278Z,2.22
2022-11-24T13:40:31.226Z,2.13
2022-11-24T13:42:57.781Z,2.15
2022-11-24T13:45:39.932Z,2.30
2022-11-24T13:48:18.942Z,2.13
2022-11-24T13:50:51.620Z,2.05
2022-11-24T13:53:42.461Z,1.85
2022-11-24T13:56:22.699Z,1.88
2022-11-24T14:01:25.801Z,2.83
2022-11-24T14:07:00.117Z,1.77
2022-11-24T14:09:52.362Z,2.40
2022-11-24T14:12:20.407Z,2.25
2022-11-24T14:14:51.488Z,2.05
2022-11-24T14:17:22.003Z,2.42
2022-11-24T14:19:50.418Z,2.17
2022-11-24T14:22:22.680Z,2.22
2022-11-24T14:24:57.004Z,1.90
2022-11-24T14:27:32.674Z,2.00
2022-11-24T14:30:17.013Z,2.15
2022-11-24T14:33:00.653Z,1.90
2022-11-24T14:35:32.479Z,1.95
2022-11-24T14:38:01.228Z,2.72
2022-11-24T14:40:47.116Z,2.42
2022-11-24T14:43:21.449Z,2.75
2022-11-24T14:45:55.267Z,2.28
2022-11-24T14:48:27.815Z,3.03
2022-11-24T14:51:14.021Z,2.20
2022-11-24T14:53:44.887Z,2.45
2022-11-24T14:56:23.633Z,2.70
2022-11-24T14:58:50.403Z,2.65
2022-11-24T15:01:37.427Z,2.30
2022-11-24T15:04:46.256Z,2.58
2022-11-24T15:07:25.669Z,2.38
2022-11-24T15:09:58.358Z,2.22
2022-11-24T15:12:27.984Z,2.30
2022-11-24T15:14:58.031Z,2.00
2022-11-24T15:17:27.164Z,2.75
2022-11-24T15:20:16.837Z,2.17
2022-11-24T15:22:46.287Z,2.40
2022-11-24T15:25:35.538Z,2.10
2022-11-24T15:28:04.807Z,1.90
2022-11-24T15:30:34.398Z,2.10
2022-11-24T15:33:01.035Z,4.57
2022-11-24T15:35:34.424Z,8.77
2022-11-24T15:38:00.973Z,10.20
2022-11-24T15:40:27.507Z,8.70
2022-11-24T15:42:55.241Z,6.93
2022-11-24T15:45:23.550Z,8.20
2022-11-24T15:47:50.355Z,6.05
2022-11-24T15:50:16.983Z,5.00
2022-11-24T15:52:44.130Z,5.10
2022-11-24T15:55:21.513Z,4.63
2022-11-24T15:57:48.626Z,4.15
2022-11-24T16:00:20.441Z,4.18
2022-11-24T16:02:47.195Z,4.28
2022-11-24T16:05:14.579Z,3.95
2022-11-24T16:07:41.608Z,3.50
2022-11-24T16:10:23.939Z,3.33
2022-11-24T16:12:50.496Z,3.58
2022-11-24T16:15:17.236Z,3.08
2022-11-24T16:17:44.124Z,3.10
2022-11-24T16:20:13.869Z,3.03
2022-11-24T16:22:40.586Z,2.90
2022-11-24T16:25:07.612Z,2.72
2022-11-24T16:27:34.310Z,3.00
2022-11-24T16:30:05.043Z,3.00
2022-11-24T16:32:31.636Z,2.58
2022-11-24T16:34:58.170Z,2.38
2022-11-24T16:37:24.698Z,2.75
2022-11-24T16:39:51.168Z,2.88
2022-11-24T16:42:17.644Z,1.98
2022-11-24T16:44:44.280Z,2.67
2022-11-24T16:47:10.774Z,2.45
2022-11-24T16:49:37.231Z,4.18
2022-11-24T16:52:03.766Z,2.75
2022-11-24T16:54:32.889Z,2.25
2022-11-24T16:56:59.638Z,2.90
2022-11-24T16:59:26.115Z,2.42
2022-11-24T17:01:52.685Z,3.08
2022-11-24T17:04:19.364Z,7.75
2022-11-24T17:06:45.848Z,9.35
2022-11-24T17:09:12.327Z,9.02
2022-11-24T17:11:38.784Z,10.70
2022-11-24T17:14:05.476Z,19.02
2022-11-24T17:16:32.019Z,12.38
2022-11-24T17:18:58.615Z,6.15
2022-11-24T17:21:26.779Z,9.20
2022-11-24T17:23:57.810Z,10.80
2022-11-24T17:26:24.898Z,3.20
2022-11-24T17:28:51.526Z,6.30
2022-11-24T17:31:22.486Z,8.13
2022-11-24T17:33:53.184Z,5.57
2022-11-24T17:36:20.630Z,3.90
2022-11-24T17:38:47.594Z,3.17
2022-11-24T17:41:14.034Z,2.85
2022-11-24T17:43:40.528Z,3.30
2022-11-24T17:46:07.397Z,2.90
2022-11-24T17:48:35.196Z,2.95
2022-11-24T17:51:03.995Z,2.85
2022-11-24T17:53:30.997Z,2.53
2022-11-24T17:56:01.410Z,3.33
2022-11-24T17:58:29.009Z,4.72
2022-11-24T18:00:55.652Z,3.97
2022-11-24T18:03:22.270Z,3.17
2022-11-24T18:05:48.772Z,7.20
2022-11-24T18:08:15.252Z,4.50
2022-11-24T18:10:41.756Z,7.03
2022-11-24T18:13:08.304Z,5.90
2022-11-24T18:15:36.285Z,11.35
2022-11-24T18:18:02.890Z,5.72
2022-11-24T18:20:29.406Z,24.27
2022-11-24T18:23:05.657Z,24.48
2022-11-24T18:25:32.675Z,10.73
2022-11-24T18:27:59.186Z,6.90
2022-11-24T18:30:25.666Z,4.10
2022-11-24T18:32:52.114Z,8.25
2022-11-24T18:35:18.676Z,7.15
2022-11-24T18:37:47.704Z,6.45
2022-11-24T18:40:14.396Z,7.82
2022-11-24T18:42:40.895Z,4.88
2022-11-24T18:45:07.851Z,7.00
2022-11-24T18:47:34.346Z,7.68
2022-11-24T18:50:00.791Z,8.77
2022-11-24T18:52:27.276Z,9.93
2022-11-24T18:54:53.759Z,5.75
2022-11-24T18:57:20.223Z,3.45
2022-11-24T18:59:46.703Z,4.80
2022-11-24T19:02:13.244Z,5.38
2022-11-24T19:04:44.885Z,3.30
2022-11-24T19:07:11.455Z,3.00
2022-11-24T19:09:37.957Z,5.38
2022-11-24T19:12:04.520Z,3.55
2022-11-24T19:14:31.011Z,6.78
2022-11-24T19:17:00.897Z,19.40
2022-11-24T19:19:29.664Z,8.00
2022-11-24T19:21:56.146Z,10.43
2022-11-24T19:24:22.619Z,6.72
2022-11-24T19:26:49.124Z,8.25
2022-11-24T19:29:15.582Z,7.80
2022-11-24T19:31:42.086Z,20.60
2022-11-24T19:34:11.215Z,19.95
2022-11-24T19:36:40.045Z,7.50
2022-11-24T19:39:07.132Z,11.38
2022-11-24T19:41:33.735Z,6.10
2022-11-24T19:44:00.538Z,4.93
2022-11-24T19:46:28.832Z,12.55
2022-11-24T19:48:56.436Z,9.43
2022-11-24T19:51:25.921Z,3.67
2022-11-24T19:53:53.020Z,3.40
2022-11-24T19:56:24.360Z,5.32
2022-11-24T19:58:51.783Z,8.57
2022-11-24T20:01:28.252Z,5.60
2022-11-24T20:04:00.478Z,6.68
2022-11-24T20:06:33.844Z,6.10
2022-11-24T20:09:01.068Z,6.43
2022-11-24T20:11:28.323Z,4.43
2022-11-24T20:13:56.167Z,4.40
2022-11-24T20:16:26.412Z,8.48
2022-11-24T20:21:21.851Z,6.97
2022-11-24T20:23:58.326Z,6.53
2022-11-24T20:26:27.224Z,22.98
2022-11-24T20:28:55.536Z,12.73
2022-11-24T20:31:25.215Z,26.27
2022-11-24T20:33:51.928Z,12.00
2022-11-24T20:36:26.131Z,4.82
2022-11-24T20:38:53.282Z,7.70
2022-11-24T20:41:22.485Z,8.38
2022-11-24T20:43:49.691Z,3.83
2022-11-24T20:46:20.992Z,4.97
2022-11-24T20:48:49.027Z,5.47
2022-11-24T20:51:18.735Z,8.85
2022-11-24T20:53:45.253Z,10.10
2022-11-24T20:56:15.070Z,3.70
2022-11-24T20:58:42.220Z,3.75
2022-11-24T21:01:11.850Z,7.60
2022-11-24T21:03:43.023Z,3.92
2022-11-24T21:06:11.166Z,8.85
2022-11-24T21:08:38.699Z,7.88
2022-11-24T21:11:06.196Z,13.38
2022-11-24T21:13:34.434Z,4.65
2022-11-24T21:16:06.588Z,3.60
2022-11-24T21:18:33.741Z,4.40
2022-11-24T21:21:00.384Z,4.50
2022-11-24T21:23:26.842Z,3.83
2022-11-24T21:25:53.367Z,3.47
2022-11-24T21:28:19.874Z,3.35
2022-11-24T21:30:46.392Z,3.78
2022-11-24T21:33:12.868Z,3.30
2022-11-24T21:35:39.397Z,2.55
2022-11-24T21:38:05.875Z,3.90
2022-11-24T21:40:32.335Z,2.90
2022-11-24T21:42:59.018Z,3.33
2022-11-24T21:45:26.231Z,2.92
2022-11-24T21:47:52.779Z,2.72
2022-11-24T21:50:19.245Z,3.00
2022-11-24T21:52:45.797Z,3.00
2022-11-24T21:55:12.359Z,3.10
2022-11-24T21:57:38.827Z,2.92
2022-11-24T22:00:06.558Z,3.92
2022-11-24T22:02:33.167Z,2.92
2022-11-24T22:04:59.700Z,2.45
2022-11-24T22:07:30.888Z,2.72
2022-11-24T22:09:59.814Z,3.05
2022-11-24T22:12:26.315Z,4.32
2022-11-24T22:14:52.790Z,9.13
2022-11-24T22:17:19.369Z,5.13
2022-11-24T22:19:45.817Z,3.50
2022-11-24T22:22:12.327Z,3.50
2022-11-24T22:24:39.120Z,3.00
2022-11-24T22:27:05.741Z,2.53
2022-11-24T22:29:32.226Z,2.38
2022-11-24T22:31:58.795Z,2.60
2022-11-24T22:34:25.308Z,2.35
2022-11-24T22:36:51.777Z,2.80
2022-11-24T22:39:18.259Z,2.30
2022-11-24T22:41:45.012Z,2.47
2022-11-24T22:44:11.506Z,2.30
2022-11-24T22:46:37.983Z,2.40
2022-11-24T22:49:04.514Z,2.33
2022-11-24T22:51:33.229Z,2.40
2022-11-24T22:54:04.035Z,2.20
2022-11-24T22:56:30.739Z,3.03
2022-11-24T22:58:57.755Z,2.38
2022-11-24T23:01:25.223Z,2.33
2022-11-24T23:03:52.771Z,1.95
2022-11-24T23:06:21.806Z,2.40
2022-11-24T23:08:49.311Z,2.08
2022-11-24T23:11:36.586Z,2.00
2022-11-24T23:14:04.347Z,2.00
2022-11-24T23:16:31.166Z,1.92
2022-11-24T23:18:57.966Z,2.33
2022-11-24T23:21:27.208Z,2.35
2022-11-24T23:23:54.651Z,2.58
2022-11-24T23:26:24.038Z,2.25
2022-11-24T23:28:50.604Z,2.80
2022-11-24T23:31:20.600Z,3.33
2022-11-24T23:33:47.494Z,2.97
2022-11-24T23:36:16.406Z,3.10
2022-11-24T23:38:46.044Z,2.63
2022-11-24T23:41:15.096Z,2.53
2022-11-24T23:43:42.339Z,2.70
2022-11-24T23:46:10.912Z,2.70
2022-11-24T23:48:37.744Z,2.83
2022-11-24T23:51:12.670Z,2.50
2022-11-24T23:53:39.564Z,2.75
2022-11-24T23:56:06.529Z,2.60
2022-11-24T23:58:33.563Z,2.72
